Terminal Aerodrome Forecast
Issued by NWS Twin Cities, MN

Home | Current Version | Previous Version | Text Only | Print | Product List | Glossary On
Versions: 1 2 3 4 5 6 7 8 9 10 11 12 13 14 15 16 17 18 19 20 21 22 23 24 25 26 27 28 29
000
FTUS43 KMPX 251016 AAB
TAFMSP
TAF AMD
KMSP 251016Z 2510/2612 15011KT 6SM BR VCSH BKN012
      TEMPO 2510/2512 4SM -RA BR SCT012 BKN040
     FM251200 18013KT 6SM -RA OVC015
     FM251430 23009KT P6SM SCT015
     FM251800 24011G17KT P6SM BKN025 OVC050
     FM252200 27018G25KT P6SM VCSH OVC025=

USA.gov is the U.S. government's official web portal to all federal, state and local government web resources and services.